createdAt,value
2018-12-18T00:01:39.165Z,21.90
2018-12-18T00:04:08.257Z,23.23
2018-12-18T00:06:37.090Z,24.17
2018-12-18T00:09:06.902Z,26.60
2018-12-18T00:11:35.848Z,26.97
2018-12-18T00:14:04.676Z,26.00
2018-12-18T00:16:33.955Z,28.43
2018-12-18T00:19:02.884Z,30.17
2018-12-18T00:21:32.017Z,29.20
2018-12-18T00:24:01.220Z,30.67
2018-12-18T00:26:30.149Z,27.70
2018-12-18T00:28:59.327Z,28.37
2018-12-18T00:31:28.223Z,30.80
2018-12-18T00:33:57.008Z,31.23
2018-12-18T00:36:25.924Z,28.33
2018-12-18T00:38:54.866Z,33.27
2018-12-18T00:41:23.801Z,33.20
2018-12-18T00:43:52.745Z,34.93
2018-12-18T00:46:21.671Z,33.30
2018-12-18T00:48:50.613Z,32.07
2018-12-18T00:51:19.459Z,34.20
2018-12-18T00:53:48.381Z,33.67
2018-12-18T00:56:17.341Z,34.67
2018-12-18T00:58:46.213Z,33.20
2018-12-18T01:01:15.036Z,30.60
2018-12-18T01:03:43.863Z,33.80
2018-12-18T01:06:12.766Z,32.23
2018-12-18T01:08:41.740Z,34.20
2018-12-18T01:11:10.646Z,32.87
2018-12-18T01:13:39.479Z,34.40
2018-12-18T01:16:08.304Z,33.80
2018-12-18T01:18:37.142Z,34.90
2018-12-18T01:21:06.560Z,34.67
2018-12-18T01:23:35.892Z,35.77
2018-12-18T01:26:04.869Z,37.10
2018-12-18T01:28:33.773Z,39.43
2018-12-18T01:31:02.725Z,37.23
2018-12-18T01:33:31.721Z,36.73
2018-12-18T01:36:00.669Z,38.70
2018-12-18T01:38:29.749Z,38.63
2018-12-18T01:40:58.630Z,38.40
2018-12-18T01:43:27.571Z,39.60
2018-12-18T01:45:56.489Z,41.43
2018-12-18T01:48:25.317Z,39.87
2018-12-18T01:50:54.670Z,40.33
2018-12-18T01:53:23.469Z,41.50
2018-12-18T01:55:52.276Z,40.70
2018-12-18T01:58:21.197Z,41.50
2018-12-18T02:00:50.017Z,39.10
2018-12-18T02:03:18.933Z,40.57
2018-12-18T02:05:47.896Z,40.37
2018-12-18T02:08:16.870Z,39.27
2018-12-18T02:10:45.729Z,39.87
2018-12-18T02:13:14.633Z,36.80
2018-12-18T02:15:43.506Z,35.50
2018-12-18T02:18:12.332Z,37.20
2018-12-18T02:20:41.253Z,37.57
2018-12-18T02:23:10.120Z,34.73
2018-12-18T02:25:38.932Z,36.90
2018-12-18T02:28:07.869Z,36.63
2018-12-18T02:30:36.731Z,36.33
2018-12-18T02:33:05.569Z,36.67
2018-12-18T02:35:34.512Z,37.67
2018-12-18T02:38:04.141Z,36.30
2018-12-18T02:40:33.069Z,31.87
2018-12-18T02:43:01.897Z,30.57
2018-12-18T02:45:30.814Z,26.63
2018-12-18T02:47:59.656Z,26.50
2018-12-18T02:50:28.634Z,27.03
2018-12-18T02:52:57.560Z,27.10
2018-12-18T02:55:26.397Z,28.90
2018-12-18T02:57:55.707Z,28.37
2018-12-18T03:00:24.642Z,30.03
2018-12-18T03:02:53.438Z,32.67
2018-12-18T03:05:22.389Z,32.97
2018-12-18T03:07:51.313Z,36.37
2018-12-18T03:10:20.133Z,35.33
2018-12-18T03:12:49.065Z,34.83
2018-12-18T03:15:17.891Z,32.20
2018-12-18T03:17:46.940Z,32.10
2018-12-18T03:20:22.518Z,31.80
2018-12-18T03:22:51.460Z,30.80
2018-12-18T03:25:20.429Z,30.03
2018-12-18T03:27:49.351Z,28.20
2018-12-18T03:30:18.287Z,25.87
2018-12-18T03:32:50.042Z,25.50
2018-12-18T03:35:18.950Z,21.97
2018-12-18T03:37:47.885Z,21.37
2018-12-18T03:40:17.390Z,21.33
2018-12-18T03:42:46.374Z,17.53
2018-12-18T03:45:15.396Z,19.00
2018-12-18T03:47:44.372Z,16.40
2018-12-18T03:50:13.292Z,16.70
2018-12-18T03:52:42.214Z,16.27
2018-12-18T03:55:11.034Z,16.70
2018-12-18T03:57:40.489Z,17.70
2018-12-18T04:00:11.178Z,17.07
2018-12-18T04:02:40.154Z,18.63
2018-12-18T04:05:09.575Z,19.10
2018-12-18T04:07:38.628Z,19.03
2018-12-18T04:10:07.919Z,22.20
2018-12-18T04:12:37.888Z,23.13
2018-12-18T04:15:07.277Z,24.93
2018-12-18T04:17:36.359Z,24.40
2018-12-18T04:20:05.411Z,26.20
2018-12-18T04:22:34.353Z,26.60
2018-12-18T04:25:03.997Z,25.53
2018-12-18T04:27:33.889Z,27.60
2018-12-18T04:30:04.196Z,26.63
2018-12-18T04:32:34.230Z,27.07
2018-12-18T04:35:04.882Z,28.20
2018-12-18T04:37:34.838Z,29.43
2018-12-18T04:40:05.481Z,27.30
2018-12-18T04:42:35.181Z,26.70
2018-12-18T04:45:04.327Z,26.47
2018-12-18T04:47:33.315Z,25.23
2018-12-18T04:50:02.120Z,27.40
2018-12-18T04:52:31.066Z,27.10
2018-12-18T04:55:00.100Z,24.67
2018-12-18T04:57:29.124Z,26.60
2018-12-18T04:59:58.218Z,26.53
2018-12-18T05:02:27.118Z,26.17
2018-12-18T05:04:55.941Z,25.10
2018-12-18T05:07:24.826Z,23.40
2018-12-18T05:09:53.709Z,26.43
2018-12-18T05:12:22.640Z,24.97
2018-12-18T05:14:51.509Z,23.67
2018-12-18T05:17:20.458Z,21.70
2018-12-18T05:19:49.509Z,23.77
2018-12-18T05:22:18.549Z,23.90
2018-12-18T05:24:47.404Z,25.30
2018-12-18T05:27:16.333Z,25.13
2018-12-18T05:29:45.178Z,24.77
2018-12-18T05:32:14.366Z,23.67
2018-12-18T05:34:43.195Z,25.27
2018-12-18T05:37:12.279Z,26.87
2018-12-18T05:39:41.275Z,25.97
2018-12-18T05:42:10.208Z,23.97
2018-12-18T05:44:39.004Z,21.27
2018-12-18T05:47:07.938Z,22.20
2018-12-18T05:49:36.800Z,17.83
2018-12-18T05:52:06.097Z,18.67
2018-12-18T05:54:35.182Z,19.90
2018-12-18T05:57:03.994Z,19.23
2018-12-18T05:59:33.017Z,20.00
2018-12-18T06:02:01.821Z,19.90
2018-12-18T06:04:30.763Z,22.83
2018-12-18T06:06:59.680Z,23.03
2018-12-18T06:09:28.528Z,24.27
2018-12-18T06:11:57.345Z,23.37
2018-12-18T06:14:26.308Z,23.80
2018-12-18T06:16:55.215Z,22.07
2018-12-18T06:19:24.041Z,22.87
2018-12-18T06:21:52.995Z,24.70
2018-12-18T06:24:21.989Z,24.47
2018-12-18T06:26:50.946Z,22.77
2018-12-18T06:29:19.850Z,23.20
2018-12-18T06:31:48.806Z,21.53
2018-12-18T06:34:17.656Z,22.13
2018-12-18T06:36:46.506Z,22.53
2018-12-18T06:39:15.474Z,23.57
2018-12-18T06:41:44.375Z,24.33
2018-12-18T06:44:13.181Z,22.80
2018-12-18T06:46:42.864Z,22.30
2018-12-18T06:49:11.685Z,22.80
2018-12-18T06:51:40.683Z,23.17
2018-12-18T06:54:09.644Z,22.30
2018-12-18T06:56:38.465Z,22.77
2018-12-18T06:59:07.333Z,21.57
2018-12-18T07:01:36.161Z,20.70
2018-12-18T07:04:05.217Z,20.03
2018-12-18T07:06:34.085Z,26.93
2018-12-18T07:09:04.461Z,25.17
2018-12-18T07:11:33.468Z,23.17
2018-12-18T07:14:02.307Z,23.57
2018-12-18T07:16:31.357Z,22.43
2018-12-18T07:19:00.325Z,22.80
2018-12-18T07:21:29.181Z,21.47
2018-12-18T07:23:58.108Z,21.57
2018-12-18T07:26:27.145Z,25.10
2018-12-18T07:28:55.945Z,25.27
2018-12-18T07:31:24.901Z,24.33
2018-12-18T07:33:53.728Z,23.53
2018-12-18T07:36:22.530Z,21.43
2018-12-18T07:38:51.425Z,23.17
2018-12-18T07:41:20.350Z,21.60
2018-12-18T07:43:49.283Z,23.37
2018-12-18T07:46:18.786Z,20.93
2018-12-18T07:48:47.798Z,21.70
2018-12-18T07:51:16.612Z,22.83
2018-12-18T07:53:45.433Z,21.27
2018-12-18T07:56:14.461Z,23.23
2018-12-18T07:58:43.397Z,24.33
2018-12-18T08:01:12.459Z,24.03
2018-12-18T08:03:41.297Z,21.40
2018-12-18T08:06:10.259Z,22.23
2018-12-18T08:08:39.192Z,25.17
2018-12-18T08:11:08.014Z,23.07
2018-12-18T08:13:37.050Z,22.97
2018-12-18T08:16:05.968Z,22.53
2018-12-18T08:18:34.913Z,23.10
2018-12-18T08:21:03.891Z,23.97
2018-12-18T08:23:32.716Z,21.87
2018-12-18T08:26:01.532Z,19.97
2018-12-18T08:28:30.584Z,18.97
2018-12-18T08:30:59.455Z,21.00
2018-12-18T08:33:28.362Z,20.67
2018-12-18T08:35:57.378Z,19.63
2018-12-18T08:38:26.197Z,19.73
2018-12-18T08:40:55.016Z,19.93
2018-12-18T08:43:23.961Z,21.17
2018-12-18T08:45:52.806Z,17.83
2018-12-18T08:48:21.867Z,17.13
2018-12-18T08:50:51.199Z,18.73
2018-12-18T08:53:20.013Z,19.90
2018-12-18T08:55:48.981Z,18.37
2018-12-18T08:58:18.013Z,17.30
2018-12-18T09:00:46.991Z,17.10
2018-12-18T09:03:15.966Z,16.73
2018-12-18T09:05:44.978Z,17.07
2018-12-18T09:08:13.999Z,17.23
2018-12-18T09:10:42.875Z,18.90
2018-12-18T09:13:11.793Z,20.60
2018-12-18T09:15:46.417Z,15.17
2018-12-18T09:18:15.411Z,20.10
2018-12-18T09:20:44.391Z,16.23
2018-12-18T09:23:13.448Z,17.90
2018-12-18T09:25:42.506Z,18.37
2018-12-18T09:28:11.408Z,18.53
2018-12-18T09:30:42.708Z,17.73
2018-12-18T09:33:11.911Z,17.47
2018-12-18T09:35:41.051Z,16.90
2018-12-18T09:38:15.581Z,19.20
2018-12-18T09:40:50.201Z,20.77
2018-12-18T09:43:24.703Z,21.83
2018-12-18T09:45:53.641Z,19.47
2018-12-18T09:48:22.565Z,19.27
2018-12-18T09:50:51.472Z,20.10
2018-12-18T09:53:20.389Z,18.97
2018-12-18T09:55:49.508Z,20.83
2018-12-18T09:58:18.508Z,21.17
2018-12-18T10:00:47.582Z,21.33
2018-12-18T10:03:16.476Z,19.97
2018-12-18T10:05:45.540Z,18.33
2018-12-18T10:08:14.518Z,21.13
2018-12-18T10:10:43.555Z,19.77
2018-12-18T10:13:12.804Z,19.83
2018-12-18T10:15:41.924Z,18.70
2018-12-18T10:18:10.764Z,17.03
2018-12-18T10:20:39.927Z,17.13
2018-12-18T10:23:08.832Z,18.50
2018-12-18T10:25:37.665Z,21.43
2018-12-18T10:28:06.749Z,20.07
2018-12-18T10:30:35.652Z,18.30
2018-12-18T10:33:06.156Z,18.93
2018-12-18T10:35:36.646Z,20.60
2018-12-18T10:38:05.769Z,16.57
2018-12-18T10:40:34.672Z,15.80
2018-12-18T10:43:03.709Z,17.00
2018-12-18T10:45:34.134Z,17.87
2018-12-18T10:48:03.056Z,19.03
2018-12-18T10:50:32.022Z,17.13
2018-12-18T10:53:00.940Z,22.47
2018-12-18T10:55:29.808Z,20.27
2018-12-18T10:57:58.717Z,20.67
2018-12-18T11:00:33.028Z,21.63
2018-12-18T11:03:01.930Z,20.80
2018-12-18T11:05:30.959Z,18.63
2018-12-18T11:07:59.817Z,16.53
2018-12-18T11:10:28.740Z,15.50
2018-12-18T11:13:03.146Z,15.77
2018-12-18T11:15:32.114Z,17.07
2018-12-18T11:18:00.937Z,17.43
2018-12-18T11:20:29.867Z,18.47
2018-12-18T11:22:58.700Z,18.53
2018-12-18T11:25:27.681Z,14.47
2018-12-18T11:27:56.513Z,15.20
2018-12-18T11:30:25.341Z,16.60
2018-12-18T11:32:54.281Z,14.67
2018-12-18T11:35:23.230Z,16.17
2018-12-18T11:37:52.200Z,16.37
2018-12-18T11:40:21.145Z,14.50
2018-12-18T11:42:50.148Z,14.50
2018-12-18T11:45:18.972Z,14.90
2018-12-18T11:47:47.891Z,15.73
2018-12-18T11:50:16.823Z,14.80
2018-12-18T11:52:45.952Z,14.77
2018-12-18T11:55:14.766Z,16.73
2018-12-18T11:57:43.604Z,12.80
2018-12-18T12:00:15.444Z,14.57
2018-12-18T12:02:44.533Z,13.63
2018-12-18T12:05:13.373Z,15.43
2018-12-18T12:07:42.287Z,14.27
2018-12-18T12:10:11.329Z,14.20
2018-12-18T12:12:44.094Z,16.97
2018-12-18T12:15:13.541Z,15.93
2018-12-18T12:17:42.555Z,16.40
2018-12-18T12:20:11.501Z,17.07
2018-12-18T12:22:40.620Z,14.87
2018-12-18T12:25:09.609Z,13.40
2018-12-18T12:27:44.818Z,15.30
2018-12-18T12:30:13.808Z,15.40
2018-12-18T12:32:42.724Z,14.87
2018-12-18T12:35:11.725Z,14.30
2018-12-18T12:37:40.861Z,18.47
2018-12-18T12:40:10.205Z,21.10
2018-12-18T12:42:39.104Z,23.47
2018-12-18T12:45:08.154Z,16.33
2018-12-18T12:47:37.381Z,15.00
2018-12-18T12:50:06.644Z,13.53
2018-12-18T12:52:35.740Z,12.97
2018-12-18T12:55:05.221Z,13.33
2018-12-18T12:57:34.134Z,14.93
2018-12-18T13:00:03.410Z,13.77
2018-12-18T13:02:32.333Z,14.63
2018-12-18T13:05:01.270Z,14.03
2018-12-18T13:07:30.294Z,13.73
2018-12-18T13:09:59.164Z,15.13
2018-12-18T13:12:29.445Z,13.97
2018-12-18T13:14:58.684Z,15.37
2018-12-18T13:17:27.628Z,16.73
2018-12-18T13:19:57.605Z,21.73
2018-12-18T13:22:26.572Z,15.93
2018-12-18T13:24:55.721Z,13.47
2018-12-18T13:27:24.949Z,14.40
2018-12-18T13:29:53.947Z,16.90
2018-12-18T13:32:23.045Z,15.07
2018-12-18T13:34:52.130Z,14.50
2018-12-18T13:37:21.162Z,14.83
2018-12-18T13:39:50.213Z,14.10
2018-12-18T13:42:19.156Z,14.33
2018-12-18T13:44:48.472Z,14.87
2018-12-18T13:47:17.774Z,14.07
2018-12-18T13:49:49.560Z,14.87
2018-12-18T13:52:18.805Z,15.47
2018-12-18T13:54:47.837Z,16.53
2018-12-18T13:57:16.944Z,16.57
2018-12-18T13:59:46.149Z,17.00
2018-12-18T14:02:15.570Z,15.67
2018-12-18T14:04:44.563Z,16.00
2018-12-18T14:07:14.360Z,16.50
2018-12-18T14:09:43.245Z,15.83
2018-12-18T14:12:12.256Z,18.67
2018-12-18T14:14:41.393Z,17.60
2018-12-18T14:17:10.320Z,19.50
2018-12-18T14:19:39.188Z,18.77
2018-12-18T14:22:08.816Z,18.30
2018-12-18T14:24:38.103Z,17.80
2018-12-18T14:27:07.134Z,19.03
2018-12-18T14:29:36.149Z,21.80
2018-12-18T14:32:05.924Z,20.77
2018-12-18T14:34:34.773Z,18.53
2018-12-18T14:37:04.028Z,19.93
2018-12-18T14:39:33.264Z,18.90
2018-12-18T14:42:02.727Z,20.03
2018-12-18T14:44:31.837Z,18.53
2018-12-18T14:47:00.644Z,19.93
2018-12-18T14:49:29.833Z,21.10
2018-12-18T14:51:58.756Z,21.27
2018-12-18T14:54:28.600Z,20.80
2018-12-18T14:56:57.920Z,20.17
2018-12-18T14:59:27.026Z,18.93
2018-12-18T15:01:56.590Z,21.10
2018-12-18T15:04:25.663Z,20.37
2018-12-18T15:06:54.789Z,20.10
2018-12-18T15:09:23.825Z,22.87
2018-12-18T15:11:52.749Z,20.23
2018-12-18T15:14:21.798Z,21.30
2018-12-18T15:16:51.155Z,22.50
2018-12-18T15:19:20.185Z,24.37
2018-12-18T15:21:49.233Z,21.17
2018-12-18T15:24:18.235Z,23.77
2018-12-18T15:26:47.423Z,20.80
2018-12-18T15:29:17.078Z,22.80
2018-12-18T15:31:45.909Z,23.63
2018-12-18T15:34:15.207Z,21.43
2018-12-18T15:36:44.318Z,25.03
2018-12-18T15:39:13.345Z,22.07
2018-12-18T15:41:42.760Z,21.67
2018-12-18T15:44:12.513Z,21.60
2018-12-18T15:46:41.781Z,21.03
2018-12-18T15:49:10.716Z,20.27
2018-12-18T15:51:39.746Z,21.00
2018-12-18T15:54:08.686Z,20.03
2018-12-18T15:56:38.125Z,19.20
2018-12-18T15:59:07.743Z,21.87
2018-12-18T16:01:36.981Z,22.53
2018-12-18T16:04:07.207Z,23.60
2018-12-18T16:06:43.940Z,23.33
2018-12-18T16:09:20.949Z,22.23
2018-12-18T16:11:49.853Z,23.70
2018-12-18T16:14:18.775Z,21.57
2018-12-18T16:16:47.978Z,24.03
2018-12-18T16:19:17.789Z,23.30
2018-12-18T16:21:47.029Z,23.80
2018-12-18T16:24:16.252Z,27.63
2018-12-18T16:26:45.287Z,24.23
2018-12-18T16:29:14.198Z,26.27
2018-12-18T16:31:43.805Z,28.03
2018-12-18T16:34:12.864Z,25.67
2018-12-18T16:36:42.141Z,27.27
2018-12-18T16:39:11.259Z,25.70
2018-12-18T16:41:40.255Z,27.47
2018-12-18T16:44:09.155Z,26.57
2018-12-18T16:46:38.109Z,25.33
2018-12-18T16:49:10.091Z,25.63
2018-12-18T16:51:39.519Z,25.10
2018-12-18T16:54:08.575Z,26.17
2018-12-18T16:56:37.857Z,24.70
2018-12-18T16:59:07.077Z,25.53
2018-12-18T17:01:36.669Z,26.07
2018-12-18T17:04:09.176Z,26.77
2018-12-18T17:06:38.213Z,26.13
2018-12-18T17:09:07.253Z,28.27
2018-12-18T17:11:36.168Z,26.87
2018-12-18T17:14:04.975Z,26.23
2018-12-18T17:16:34.349Z,19.27
2018-12-18T17:19:03.595Z,19.23
2018-12-18T17:21:32.444Z,18.47
2018-12-18T17:24:01.494Z,20.97
2018-12-18T17:26:31.281Z,24.43
2018-12-18T17:29:00.223Z,21.23
2018-12-18T17:31:29.742Z,22.37
2018-12-18T17:33:58.721Z,23.27
2018-12-18T17:36:27.945Z,24.13
2018-12-18T17:38:56.864Z,28.93
2018-12-18T17:41:25.879Z,31.90
2018-12-18T17:43:55.144Z,34.90
2018-12-18T17:46:23.994Z,34.43
2018-12-18T17:48:52.959Z,34.07
2018-12-18T17:51:21.783Z,33.77
2018-12-18T17:53:50.849Z,30.80
2018-12-18T17:56:19.757Z,27.13
2018-12-18T17:58:48.663Z,25.57
2018-12-18T18:01:17.697Z,25.00
2018-12-18T18:03:46.725Z,27.57
2018-12-18T18:06:15.777Z,29.37
2018-12-18T18:08:44.717Z,26.03
2018-12-18T18:11:13.746Z,27.43
2018-12-18T18:13:42.581Z,27.87
2018-12-18T18:16:11.505Z,21.43
2018-12-18T18:18:40.634Z,22.67
2018-12-18T18:21:09.462Z,21.10
2018-12-18T18:23:38.601Z,27.30
2018-12-18T18:26:09.125Z,20.63
2018-12-18T18:28:38.645Z,19.37
2018-12-18T18:31:07.671Z,24.80
2018-12-18T18:33:36.900Z,21.40
2018-12-18T18:36:05.854Z,30.00
2018-12-18T18:38:42.261Z,18.80
2018-12-18T18:41:11.086Z,26.97
2018-12-18T18:43:40.290Z,29.30
2018-12-18T18:46:09.209Z,22.03
2018-12-18T18:48:38.190Z,17.00
2018-12-18T18:51:07.172Z,18.63
2018-12-18T18:53:36.650Z,16.23
2018-12-18T18:56:06.264Z,17.47
2018-12-18T18:58:35.075Z,16.67
2018-12-18T19:01:04.248Z,14.90
2018-12-18T19:03:33.171Z,16.63
2018-12-18T19:06:02.657Z,16.33
2018-12-18T19:08:31.691Z,15.43
2018-12-18T19:11:00.676Z,15.37
2018-12-18T19:13:30.494Z,15.40
2018-12-18T19:15:59.533Z,15.63
2018-12-18T19:18:28.697Z,16.33
2018-12-18T19:20:57.661Z,15.33
2018-12-18T19:23:26.818Z,13.07
2018-12-18T19:25:55.668Z,11.80
2018-12-18T19:28:24.593Z,14.00
2018-12-18T19:30:54.005Z,14.10
2018-12-18T19:33:22.979Z,13.90
2018-12-18T19:35:51.885Z,12.97
2018-12-18T19:38:20.797Z,11.03
2018-12-18T19:40:49.841Z,12.93
2018-12-18T19:43:18.661Z,10.97
2018-12-18T19:45:47.628Z,11.90
2018-12-18T19:48:16.596Z,12.00
2018-12-18T19:50:45.617Z,12.00
2018-12-18T19:53:14.646Z,12.90
2018-12-18T19:55:43.581Z,12.80
2018-12-18T19:58:12.504Z,12.67
2018-12-18T20:00:41.413Z,12.67
2018-12-18T20:03:10.336Z,14.13
2018-12-18T20:05:39.277Z,13.20
2018-12-18T20:08:10.167Z,13.70
2018-12-18T20:10:40.181Z,12.50
2018-12-18T20:13:09.093Z,11.50
2018-12-18T20:15:38.177Z,12.07
2018-12-18T20:18:07.109Z,13.27
2018-12-18T20:20:36.034Z,13.53
2018-12-18T20:23:05.057Z,14.20
2018-12-18T20:25:34.277Z,12.37
2018-12-18T20:28:03.217Z,13.00
2018-12-18T20:30:33.356Z,12.87
2018-12-18T20:33:02.813Z,13.03
2018-12-18T20:35:31.993Z,14.57
2018-12-18T20:38:00.883Z,13.50
2018-12-18T20:40:29.790Z,12.37
2018-12-18T20:42:58.761Z,12.87
2018-12-18T20:45:27.677Z,13.60
2018-12-18T20:47:56.678Z,11.80
2018-12-18T20:50:25.729Z,10.33
2018-12-18T20:52:54.666Z,12.60
2018-12-18T20:55:24.006Z,12.60
2018-12-18T20:57:52.817Z,13.13
2018-12-18T21:00:21.829Z,11.97
2018-12-18T21:02:50.821Z,10.47
2018-12-18T21:05:19.629Z,12.33
2018-12-18T21:07:49.288Z,11.87
2018-12-18T21:10:18.286Z,12.50
2018-12-18T21:12:47.286Z,11.83
2018-12-18T21:15:16.305Z,12.23
2018-12-18T21:17:45.219Z,11.93
2018-12-18T21:20:14.230Z,13.00
2018-12-18T21:22:43.209Z,11.90
2018-12-18T21:25:18.754Z,11.93
2018-12-18T21:27:43.064Z,11.03
2018-12-18T21:30:11.937Z,11.67
2018-12-18T21:32:40.846Z,11.33
2018-12-18T21:35:09.969Z,11.27
2018-12-18T21:37:38.894Z,11.00
2018-12-18T21:40:07.917Z,11.40
2018-12-18T21:42:36.957Z,10.60
2018-12-18T21:45:06.128Z,11.90
2018-12-18T21:47:35.149Z,9.60
2018-12-18T21:50:05.576Z,8.97
2018-12-18T21:52:34.468Z,9.90
2018-12-18T21:55:03.445Z,9.77
2018-12-18T21:57:32.358Z,9.23
2018-12-18T22:00:01.239Z,10.80
2018-12-18T22:02:30.219Z,9.87
2018-12-18T22:04:59.144Z,10.23
2018-12-18T22:07:28.057Z,9.87
2018-12-18T22:09:57.364Z,9.43
2018-12-18T22:12:26.141Z,8.23
2018-12-18T22:14:54.928Z,8.87
2018-12-18T22:17:23.817Z,9.60
2018-12-18T22:19:52.742Z,9.67
2018-12-18T22:22:21.616Z,9.40
2018-12-18T22:24:50.425Z,9.17
2018-12-18T22:27:19.326Z,9.90
2018-12-18T22:29:48.257Z,9.00
2018-12-18T22:32:17.092Z,9.13
2018-12-18T22:34:46.009Z,8.23
2018-12-18T22:37:14.973Z,8.80
2018-12-18T22:39:43.902Z,9.10
2018-12-18T22:42:12.919Z,8.87
2018-12-18T22:44:41.943Z,8.70
2018-12-18T22:47:10.854Z,9.53
2018-12-18T22:49:39.910Z,8.97
2018-12-18T22:52:08.718Z,9.03
2018-12-18T22:54:37.657Z,8.90
2018-12-18T22:57:07.085Z,8.50
2018-12-18T22:59:35.950Z,9.50
2018-12-18T23:02:10.703Z,8.03
2018-12-18T23:04:39.779Z,9.60
2018-12-18T23:07:08.799Z,9.13
2018-12-18T23:09:37.629Z,9.00
2018-12-18T23:12:06.471Z,9.80
2018-12-18T23:14:35.509Z,9.80
2018-12-18T23:17:04.788Z,9.73
2018-12-18T23:19:33.735Z,9.30
2018-12-18T23:22:02.829Z,8.77
2018-12-18T23:24:31.932Z,8.87
2018-12-18T23:27:00.846Z,8.63
2018-12-18T23:29:29.680Z,9.57
2018-12-18T23:31:58.709Z,9.10
2018-12-18T23:34:32.931Z,9.33
2018-12-18T23:36:58.802Z,8.63
2018-12-18T23:39:27.755Z,9.50
2018-12-18T23:41:56.866Z,9.10
2018-12-18T23:44:25.893Z,9.73
2018-12-18T23:46:54.807Z,9.27
2018-12-18T23:49:23.650Z,9.07
2018-12-18T23:51:52.702Z,8.03
2018-12-18T23:54:21.512Z,8.67
2018-12-18T23:56:50.449Z,9.53
2018-12-18T23:59:19.464Z,10.07
